Aviation Digital Data Service (ADDS)

Output produced by METARs form (0017 UTC 29 June 2017)
found at http://aviationweather.gov/adds/metars/
 
KGFL 282336Z 2900/2924 27008KT P6SM SKC 
     FM290800 19004KT P6SM BKN060 
     PROB30 2912/2918 4SM -SHRA OVC040 
     FM291800 16006KT 4SM SHRA OVC080